Time;durP1;ratioP1;P1;durP2;ratioP2;P2;SDS_P1;SDS_P2;PMS_P1;PMS_P2;Temp;Humidity;BMP_temperature;BMP_pressure;BME280_temperature;BME280_humidity;BME280_pressure;Samples;Min_cycle;Max_cycle;Signal;HPM_P1;HPM_P2
2022/01/24 00:01:30;;;;;;;23.63;15.07;;;1.10;99.90;;;;;;4914092;29;20092;-53
2022/01/24 00:03:58;;;;;;;21.17;13.18;;;1.30;99.90;;;;;;4901186;29;20064;-52
2022/01/24 00:06:25;;;;;;;19.35;12.23;;;1.20;99.90;;;;;;4914477;29;20048;-56
2022/01/24 00:08:51;;;;;;;29.83;17.85;;;1.20;99.90;;;;;;4914813;29;20046;-54
2022/01/24 00:11:21;;;;;;;24.90;15.95;;;1.30;99.90;;;;;;4875869;29;20044;-55
2022/01/24 00:26:56;;;;;;;15.52;10.52;;;1.30;99.90;;;;;;5010283;28;20037;-54
2022/01/24 00:29:24;;;;;;;17.90;11.20;;;1.20;99.90;;;;;;5011197;28;20545;-56
2022/01/24 00:31:52;;;;;;;21.15;13.40;;;1.20;99.90;;;;;;5011072;28;20076;-53
2022/01/24 00:34:18;;;;;;;23.17;13.68;;;1.30;99.90;;;;;;5011135;28;20037;-52
2022/01/24 00:36:48;;;;;;;20.30;12.50;;;1.40;99.90;;;;;;4945904;28;20049;-55
2022/01/24 00:39:15;;;;;;;17.38;12.02;;;;;;;;;;5011103;28;20029;-55
2022/01/24 00:41:51;;;;;;;18.13;9.77;;;1.60;99.90;;;;;;5011764;28;20557;-53
2022/01/24 00:47:02;;;;;;;16.23;11.13;;;1.10;99.90;;;;;;5011252;28;20041;-51
2022/01/24 00:54:52;;;;;;;14.55;10.40;;;1.00;99.90;;;;;;5053533;28;20163;-53
2022/01/24 00:57:19;;;;;;;21.85;12.35;;;1.20;99.90;;;;;;5053162;28;20029;-53
2022/01/24 00:59:45;;;;;;;16.15;11.77;;;1.30;99.90;;;;;;5052957;28;20036;-56
2022/01/24 01:02:12;;;;;;;15.63;10.85;;;1.20;99.90;;;;;;5055607;28;20021;-51
2022/01/24 01:05:17;;;;;;;18.88;11.90;;;1.20;99.90;;;;;;5057394;28;20382;-53
2022/01/24 01:18:42;;;;;;;18.25;11.68;;;0.60;99.90;;;;;;4997837;28;20025;-51
2022/01/24 01:21:10;;;;;;;17.00;10.90;;;0.50;99.90;;;;;;4980173;28;20526;-51
2022/01/24 01:23:46;;;;;;;20.08;11.23;;;0.40;99.90;;;;;;4995522;28;20034;-51
2022/01/24 01:26:26;;;;;;;16.27;11.55;;;0.10;99.90;;;;;;4996104;28;20042;-52
2022/01/24 01:28:58;;;;;;;15.98;10.65;;;-0.10;99.90;;;;;;4996889;28;20038;-52
2022/01/24 01:34:12;;;;;;;24.80;14.32;;;0.00;99.90;;;;;;4997279;28;20041;-53
2022/01/24 01:37:27;;;;;;;17.75;11.30;;;0.10;99.90;;;;;;4996522;28;20046;-54
2022/01/24 01:55:44;;;;;;;18.02;11.25;;;0.60;99.90;;;;;;5077565;28;20059;-53
2022/01/24 01:58:12;;;;;;;19.30;11.57;;;0.70;99.90;;;;;;5025892;28;20044;-54
2022/01/24 02:00:42;;;;;;;23.52;12.43;;;0.70;99.90;;;;;;5058698;28;20427;-53
2022/01/24 02:03:08;;;;;;;75.78;68.68;;;0.70;99.90;;;;;;5024708;28;20119;-55
2022/01/24 02:05:36;;;;;;;27.27;15.70;;;0.80;99.90;;;;;;5058778;28;20036;-50
2022/01/24 02:08:02;;;;;;;37.00;21.08;;;0.80;99.90;;;;;;5076407;28;20484;-54
2022/01/24 02:10:28;;;;;;;20.60;13.40;;;0.80;99.90;;;;;;5041219;28;20101;-52
2022/01/24 02:12:55;;;;;;;21.65;12.73;;;0.90;99.90;;;;;;5041028;28;20086;-52
2022/01/24 02:15:34;;;;;;;17.52;10.73;;;0.80;99.90;;;;;;5076865;28;20056;-55
2022/01/24 02:18:11;;;;;;;18.45;12.82;;;0.60;99.90;;;;;;5044982;28;20455;-55
2022/01/24 02:25:55;;;;;;;14.30;8.43;;;;;;;;;;5079658;28;20040;-55
2022/01/24 02:28:23;;;;;;;10.50;7.35;;;-0.80;99.90;;;;;;5079362;28;20433;-54
2022/01/24 02:31:07;;;;;;;15.13;10.73;;;-1.00;99.90;;;;;;5076333;28;20032;-53
2022/01/24 02:33:33;;;;;;;14.70;9.30;;;-1.20;99.90;;;;;;5074830;28;20469;-54
2022/01/24 02:35:59;;;;;;;16.92;10.18;;;;;;;;;;5075609;28;20103;-51
2022/01/24 02:38:54;;;;;;;22.17;11.00;;;;;;;;;;5040374;28;20086;-55
2022/01/24 02:49:30;;;;;;;20.17;12.75;;;;;;;;;;5075368;28;20166;-55
2022/01/24 02:52:03;;;;;;;25.98;13.25;;;;;;;;;;5075252;28;20032;-53
2022/01/24 02:54:32;;;;;;;22.75;12.77;;;;;;;;;;5057028;28;20040;-51
2022/01/24 02:56:58;;;;;;;22.27;12.88;;;;;;;;;;5075142;28;20476;-54
2022/01/24 02:59:25;;;;;;;23.60;11.18;;;;;;;;;;5075587;28;20500;-54
2022/01/24 03:01:51;;;;;;;20.33;12.52;;;-1.70;99.90;;;;;;5075616;28;20488;-51
2022/01/24 03:04:17;;;;;;;21.83;14.02;;;-1.70;99.90;;;;;;5075346;28;20065;-52
2022/01/24 03:06:43;;;;;;;21.58;12.63;;;-1.70;99.90;;;;;;5040227;28;20385;-58
2022/01/24 03:09:09;;;;;;;18.83;11.68;;;-1.70;99.90;;;;;;5075290;28;20081;-56
2022/01/24 03:14:21;;;;;;;20.45;12.55;;;-1.50;99.90;;;;;;5075445;28;20071;-54
2022/01/24 03:16:48;;;;;;;24.92;14.77;;;-1.70;99.90;;;;;;5075002;28;20036;-52
2022/01/24 03:19:14;;;;;;;30.25;16.77;;;-1.70;99.90;;;;;;5074915;28;20503;-52
2022/01/24 03:21:43;;;;;;;31.73;17.48;;;-1.50;99.90;;;;;;5075188;28;20033;-52
2022/01/24 03:24:13;;;;;;;33.30;18.35;;;-1.60;99.90;;;;;;5074214;28;20494;-51
2022/01/24 03:26:40;;;;;;;44.00;21.67;;;-1.50;99.90;;;;;;5074900;28;20036;-54
2022/01/24 03:29:05;;;;;;;48.78;26.38;;;-1.70;99.90;;;;;;5039572;28;20400;-57
2022/01/24 03:31:33;;;;;;;48.78;26.55;;;-1.70;99.90;;;;;;5006771;28;20044;-53
2022/01/24 03:34:00;;;;;;;25.80;16.15;;;-1.70;99.90;;;;;;5075001;28;20430;-51
2022/01/24 03:36:26;;;;;;;16.30;9.77;;;-1.60;99.90;;;;;;5056733;28;20059;-52
2022/01/24 03:38:52;;;;;;;16.00;10.30;;;-1.40;99.90;;;;;;5074661;28;20496;-55
2022/01/24 03:41:19;;;;;;;18.77;10.55;;;-1.20;99.90;;;;;;5074664;28;20123;-52
2022/01/24 03:43:46;;;;;;;15.27;10.07;;;;;;;;;;5023216;28;20045;-55
2022/01/24 03:46:25;;;;;;;18.55;11.48;;;;;;;;;;5074286;28;20131;-56
2022/01/24 03:48:55;;;;;;;22.67;11.05;;;-0.50;99.90;;;;;;5056285;28;20044;-51
2022/01/24 03:51:23;;;;;;;19.23;10.45;;;-0.50;99.90;;;;;;5040491;28;20484;-54
2022/01/24 03:53:49;;;;;;;20.17;12.00;;;-0.40;99.90;;;;;;5074256;28;20029;-53
2022/01/24 03:56:16;;;;;;;21.02;11.50;;;-0.50;99.90;;;;;;5074502;28;20151;-54
2022/01/24 03:58:43;;;;;;;15.60;9.65;;;-0.50;99.90;;;;;;5074182;28;20024;-53
2022/01/24 04:01:10;;;;;;;25.20;15.70;;;-0.40;99.90;;;;;;5055669;28;20140;-56
2022/01/24 04:03:37;;;;;;;24.30;13.80;;;-0.50;99.90;;;;;;5031805;28;20037;-55
2022/01/24 04:06:06;;;;;;;23.65;12.23;;;-0.70;99.90;;;;;;5031861;28;20068;-51
2022/01/24 04:08:32;;;;;;;18.83;11.15;;;-1.00;99.90;;;;;;5031773;28;20176;-52
2022/01/24 04:10:59;;;;;;;20.00;10.70;;;-0.80;99.90;;;;;;5031699;28;20591;-53
2022/01/24 04:13:30;;;;;;;16.23;8.95;;;-0.50;99.90;;;;;;5031629;28;20045;-54
2022/01/24 04:21:31;;;;;;;12.23;8.10;;;-0.30;99.90;;;;;;5032023;28;20026;-55
2022/01/24 04:24:04;;;;;;;16.23;9.80;;;-0.20;99.90;;;;;;5015235;28;20075;-50
2022/01/24 04:26:30;;;;;;;23.90;9.13;;;-0.10;99.90;;;;;;5031530;28;20085;-50
2022/01/24 04:28:57;;;;;;;16.23;8.88;;;0.00;99.90;;;;;;4998687;28;20072;-51
2022/01/24 04:31:23;;;;;;;13.52;7.82;;;0.00;99.90;;;;;;5031438;28;20037;-51
2022/01/24 04:33:49;;;;;;;13.23;8.27;;;0.10;99.90;;;;;;5039062;28;20044;-51
2022/01/24 04:36:16;;;;;;;12.85;7.70;;;0.00;99.90;;;;;;5072360;28;20074;-51
2022/01/24 04:38:42;;;;;;;16.20;8.25;;;0.00;99.90;;;;;;5073391;28;20032;-53
2022/01/24 04:41:17;;;;;;;14.95;8.32;;;-0.50;99.90;;;;;;5073307;28;20021;-52
2022/01/24 04:52:13;;;;;;;16.25;8.15;;;-0.50;99.90;;;;;;5073700;28;20124;-52
2022/01/24 04:57:07;;;;;;;12.68;7.93;;;-0.40;99.90;;;;;;5073430;28;20115;-52
2022/01/24 04:59:33;;;;;;;13.18;7.38;;;-0.30;99.90;;;;;;5073121;28;20037;-53
2022/01/24 05:01:59;;;;;;;12.60;8.15;;;;;;;;;;5073187;28;20056;-52
2022/01/24 05:04:25;;;;;;;14.05;8.77;;;-0.50;99.90;;;;;;5073082;28;20024;-50
2022/01/24 05:06:51;;;;;;;13.93;8.73;;;-0.50;99.90;;;;;;5054517;28;20043;-50
2022/01/24 05:09:18;;;;;;;15.90;8.43;;;-0.50;99.90;;;;;;5054411;28;20040;-54
2022/01/24 05:11:48;;;;;;;22.67;10.15;;;-0.50;99.90;;;;;;5072950;28;20473;-52
2022/01/24 05:25:12;;;;;;;17.25;8.63;;;-0.90;99.90;;;;;;5057314;28;20063;-54
2022/01/24 05:27:38;;;;;;;13.00;8.85;;;-0.90;99.90;;;;;;5072923;28;20464;-52
2022/01/24 05:30:05;;;;;;;16.38;8.63;;;-0.90;99.90;;;;;;5004698;28;20051;-52
2022/01/24 05:32:31;;;;;;;17.23;8.57;;;-0.80;99.90;;;;;;5053686;28;20039;-50
2022/01/24 05:34:56;;;;;;;34.42;23.45;;;-0.80;99.90;;;;;;5072975;28;20032;-53
2022/01/24 05:37:22;;;;;;;34.78;28.63;;;-0.90;99.90;;;;;;5071642;28;20024;-53
2022/01/24 05:39:48;;;;;;;17.85;13.85;;;-1.10;99.90;;;;;;4987094;28;20089;-54
2022/01/24 05:42:17;;;;;;;19.60;12.13;;;-1.20;99.90;;;;;;5070287;28;20158;-50
2022/01/24 05:44:43;;;;;;;15.52;11.32;;;-1.30;99.90;;;;;;5056626;28;20085;-54
2022/01/24 05:47:09;;;;;;;22.30;10.15;;;-1.40;99.90;;;;;;5062176;28;20067;-51
2022/01/24 05:49:34;;;;;;;17.05;10.68;;;-1.60;99.90;;;;;;5070285;28;20086;-54
2022/01/24 05:52:02;;;;;;;17.73;9.73;;;;;;;;;;5065455;28;20385;-54
2022/01/24 05:54:30;;;;;;;15.18;9.57;;;-1.70;99.90;;;;;;5065567;28;20064;-52
2022/01/24 05:56:56;;;;;;;13.65;9.73;;;;;;;;;;5020630;28;20390;-52
2022/01/24 05:59:25;;;;;;;17.23;10.32;;;-1.50;99.90;;;;;;5055374;28;20072;-52
2022/01/24 06:01:50;;;;;;;14.27;9.25;;;-1.40;99.90;;;;;;5030301;28;20052;-53
2022/01/24 06:04:16;;;;;;;18.80;10.60;;;-1.40;99.90;;;;;;5075575;28;20029;-54
2022/01/24 06:06:42;;;;;;;16.67;9.43;;;-1.30;99.90;;;;;;5075631;28;20115;-53
2022/01/24 06:09:08;;;;;;;19.33;9.15;;;-1.20;99.90;;;;;;5075060;28;20112;-49
2022/01/24 06:11:34;;;;;;;14.85;8.90;;;-1.10;99.90;;;;;;5038323;28;20049;-54
2022/01/24 06:14:02;;;;;;;18.05;9.70;;;-1.00;99.90;;;;;;5074926;28;20090;-54
2022/01/24 06:16:28;;;;;;;22.27;11.13;;;-1.00;99.90;;;;;;5056873;28;20480;-50
2022/01/24 06:18:53;;;;;;;14.73;9.63;;;-1.00;99.90;;;;;;5074821;28;20032;-53
2022/01/24 06:21:19;;;;;;;14.55;9.00;;;-1.00;99.90;;;;;;5060878;28;20032;-51
2022/01/24 06:23:45;;;;;;;23.58;10.85;;;-0.90;99.90;;;;;;5074004;28;20028;-51
2022/01/24 06:26:11;;;;;;;17.25;11.73;;;-1.40;99.90;;;;;;5074708;28;20032;-53
2022/01/24 06:28:37;;;;;;;16.35;10.50;;;-1.80;99.90;;;;;;5055643;28;20045;-49
2022/01/24 06:31:03;;;;;;;14.95;8.60;;;-2.10;99.90;;;;;;5055599;28;20051;-53
2022/01/24 06:33:29;;;;;;;15.52;8.27;;;-2.50;99.90;;;;;;5055350;28;20036;-51
2022/01/24 06:35:55;;;;;;;17.00;9.88;;;-2.20;99.90;;;;;;5054448;28;20487;-51
2022/01/24 06:38:21;;;;;;;21.98;12.57;;;-1.80;99.90;;;;;;5054648;28;20033;-54
2022/01/24 06:40:47;;;;;;;25.83;14.65;;;-1.60;99.90;;;;;;5021398;28;20090;-55
2022/01/24 06:43:13;;;;;;;27.35;13.73;;;;;;;;;;5063093;28;20086;-53
2022/01/24 06:45:38;;;;;;;22.75;14.10;;;0.20;99.90;;;;;;5063346;28;20365;-55
2022/01/24 06:48:04;;;;;;;15.30;11.55;;;2.10;99.90;;;;;;5064481;28;20037;-53
2022/01/24 06:50:30;;;;;;;18.40;9.55;;;4.10;98.50;;;;;;5064216;28;21249;-54
2022/01/24 06:52:56;;;;;;;24.13;12.82;;;;;;;;;;4998664;28;20052;-54
2022/01/24 06:55:22;;;;;;;13.57;9.68;;;5.30;99.90;;;;;;4982921;28;20045;-51
2022/01/24 06:57:48;;;;;;;12.40;9.63;;;5.70;92.70;;;;;;5000945;28;20065;-54
2022/01/24 07:00:14;;;;;;;57.70;48.97;;;;;;;;;;5003417;28;20111;-54
2022/01/24 07:02:40;;;;;;;15.60;10.02;;;8.50;90.60;;;;;;5002401;28;20554;-54
2022/01/24 07:05:06;;;;;;;17.70;11.13;;;9.70;88.10;;;;;;5000561;28;20149;-53
2022/01/24 07:07:33;;;;;;;19.88;11.85;;;9.50;96.40;;;;;;4985176;28;20080;-57
2022/01/24 07:09:59;;;;;;;25.02;17.02;;;;;;;;;;5002025;28;20147;-55
2022/01/24 07:12:25;;;;;;;21.90;13.65;;;10.40;76.80;;;;;;5000576;28;20062;-57
2022/01/24 07:14:52;;;;;;;37.20;22.00;;;;;;;;;;5006041;28;20061;-55
2022/01/24 07:19:50;;;;;;;100.95;54.42;;;12.30;76.90;;;;;;5011754;28;20026;-50
2022/01/24 07:22:16;;;;;;;48.60;29.88;;;12.20;71.40;;;;;;5016780;28;20091;-51
2022/01/24 07:24:42;;;;;;;38.22;23.15;;;11.30;72.60;;;;;;5065979;28;20028;-49
2022/01/24 07:27:08;;;;;;;37.60;24.42;;;10.90;72.70;;;;;;5073352;28;20031;-52
2022/01/24 07:29:34;;;;;;;40.65;23.55;;;11.40;77.00;;;;;;5037865;28;20388;-47
2022/01/24 07:32:00;;;;;;;39.95;23.60;;;11.20;71.60;;;;;;5071837;28;20494;-47
2022/01/24 07:34:26;;;;;;;54.45;25.23;;;12.00;72.00;;;;;;5073198;28;20588;-48
2022/01/24 07:36:52;;;;;;;34.40;22.95;;;10.80;71.40;;;;;;5073246;28;20025;-50
2022/01/24 07:39:18;;;;;;;40.88;23.25;;;11.80;69.30;;;;;;5065320;28;20557;-50
2022/01/24 07:41:46;;;;;;;33.28;21.17;;;12.00;70.20;;;;;;5053292;28;20032;-47
2022/01/24 07:44:13;;;;;;;84.38;51.88;;;12.00;70.30;;;;;;5052918;28;20037;-53
2022/01/24 07:46:39;;;;;;;86.68;48.25;;;11.60;69.90;;;;;;5057203;28;20033;-49
2022/01/24 07:49:07;;;;;;;38.45;22.90;;;12.60;70.10;;;;;;5071735;28;20059;-50
2022/01/24 07:51:34;;;;;;;31.80;21.80;;;;;;;;;;5066362;28;20397;-47
2022/01/24 07:54:00;;;;;;;231.27;120.45;;;;;;;;;;5062847;28;20496;-47
2022/01/24 07:56:26;;;;;;;161.32;63.78;;;;;;;;;;5063655;28;20051;-47
2022/01/24 07:58:52;;;;;;;22.05;14.90;;;12.80;97.10;;;;;;5071010;28;20031;-48
2022/01/24 08:01:19;;;;;;;76.60;34.00;;;13.30;66.40;;;;;;5022532;28;20029;-48
2022/01/24 08:03:45;;;;;;;45.70;24.15;;;;;;;;;;5073756;28;20028;-51
2022/01/24 08:06:11;;;;;;;150.13;58.35;;;16.90;63.70;;;;;;5022027;28;20480;-47
2022/01/24 08:08:37;;;;;;;60.88;28.85;;;;;;;;;;5073795;28;20396;-49
2022/01/24 08:11:03;;;;;;;334.20;119.07;;;14.90;62.00;;;;;;5072936;28;20040;-50
2022/01/24 08:13:29;;;;;;;113.28;53.70;;;14.90;62.90;;;;;;5035442;28;20033;-52
2022/01/24 08:15:55;;;;;;;174.30;64.93;;;16.60;62.90;;;;;;5026556;28;20473;-48
2022/01/24 08:18:20;;;;;;;42.63;24.90;;;16.50;62.20;;;;;;5071090;28;20086;-50
2022/01/24 08:20:46;;;;;;;83.57;37.10;;;14.20;60.80;;;;;;5022006;28;20033;-48
2022/01/24 08:23:13;;;;;;;23.73;15.07;;;13.40;62.20;;;;;;5055188;28;20029;-44
2022/01/24 08:25:39;;;;;;;90.70;35.75;;;12.80;63.90;;;;;;5068167;28;20542;-46
2022/01/24 08:28:05;;;;;;;30.08;18.05;;;11.50;63.90;;;;;;5011620;28;20036;-48
2022/01/24 08:30:31;;;;;;;380.80;145.25;;;11.70;65.00;;;;;;5064701;28;20036;-50
2022/01/24 08:32:57;;;;;;;30.65;19.40;;;13.90;65.40;;;;;;5073665;28;20472;-47
2022/01/24 08:35:23;;;;;;;120.60;49.55;;;12.90;62.70;;;;;;5067126;28;20137;-49
2022/01/24 08:37:50;;;;;;;55.22;24.52;;;;;;;;;;5061411;28;20036;-44
2022/01/24 08:40:25;;;;;;;52.92;24.95;;;15.70;87.80;;;;;;5063773;28;20071;-48
2022/01/24 08:43:11;;;;;;;16.13;14.55;;;14.70;63.50;;;;;;5061713;28;20040;-50
2022/01/24 08:45:58;;;;;;;200.20;77.75;;;16.40;61.70;;;;;;5028536;28;20035;-50
2022/01/24 08:48:24;;;;;;;20.70;16.15;;;14.90;60.20;;;;;;5041476;28;20041;-49
2022/01/24 08:50:55;;;;;;;133.52;63.00;;;15.20;62.10;;;;;;5013237;28;20037;-48
2022/01/24 08:53:23;;;;;;;72.00;39.58;;;14.40;61.80;;;;;;5019727;28;20037;-49
2022/01/24 08:55:49;;;;;;;35.33;21.55;;;15.40;60.80;;;;;;5021312;28;20401;-47
2022/01/24 08:58:15;;;;;;;54.45;29.63;;;14.80;60.60;;;;;;5031116;28;20038;-49
2022/01/24 09:00:45;;;;;;;17.90;13.32;;;13.50;61.10;;;;;;4981610;28;20459;-46
2022/01/24 09:03:12;;;;;;;12.73;11.38;;;15.80;61.50;;;;;;5010549;28;20111;-46
2022/01/24 09:05:38;;;;;;;54.88;33.33;;;16.60;59.50;;;;;;5028278;28;20396;-47
2022/01/24 09:08:05;;;;;;;60.05;36.65;;;17.20;58.80;;;;;;4998287;28;20048;-47
2022/01/24 09:10:32;;;;;;;21.00;19.15;;;17.30;58.30;;;;;;5030870;28;20471;-48
2022/01/24 09:12:58;;;;;;;18.63;14.60;;;16.90;59.00;;;;;;5030132;28;20033;-47
2022/01/24 09:15:24;;;;;;;16.40;14.82;;;17.70;58.10;;;;;;5030618;28;20099;-46
2022/01/24 09:17:50;;;;;;;14.15;12.60;;;13.60;60.10;;;;;;4991704;28;20543;-48
2022/01/24 09:20:16;;;;;;;19.17;16.17;;;14.70;61.20;;;;;;4991351;28;20039;-49
2022/01/24 09:22:45;;;;;;;20.50;18.60;;;15.20;60.30;;;;;;4976325;28;20066;-46
2022/01/24 09:25:12;;;;;;;14.43;13.02;;;14.00;59.10;;;;;;5012362;28;20050;-49
2022/01/24 09:27:41;;;;;;;16.02;14.70;;;14.00;60.80;;;;;;4998597;28;20048;-48
2022/01/24 09:30:08;;;;;;;20.83;18.70;;;16.10;59.40;;;;;;5013716;28;20044;-49
2022/01/24 09:32:35;;;;;;;40.67;28.90;;;17.60;58.60;;;;;;4974340;28;20034;-49
2022/01/24 09:35:02;;;;;;;19.23;17.70;;;18.10;57.60;;;;;;4970191;28;20041;-47
2022/01/24 09:37:28;;;;;;;25.20;23.42;;;18.10;56.90;;;;;;4964721;28;20042;-50
2022/01/24 09:39:53;;;;;;;14.25;12.85;;;18.60;56.40;;;;;;4967138;28;20027;-49
2022/01/24 09:42:19;;;;;;;34.33;32.00;;;15.70;57.60;;;;;;4974283;28;20066;-44
2022/01/24 09:44:45;;;;;;;31.10;26.88;;;16.20;58.50;;;;;;4966402;28;20415;-47
2022/01/24 09:47:15;;;;;;;25.17;16.65;;;17.00;57.50;;;;;;4953748;28;20518;-50
2022/01/24 09:49:42;;;;;;;25.27;22.70;;;17.30;57.60;;;;;;5014263;28;20045;-47
2022/01/24 09:52:08;;;;;;;21.98;18.85;;;17.10;57.40;;;;;;4986468;28;20034;-47
2022/01/24 09:54:34;;;;;;;35.72;21.67;;;14.60;58.90;;;;;;5022321;28;20048;-47
2022/01/24 09:56:59;;;;;;;20.25;18.45;;;13.60;60.00;;;;;;4974780;28;20033;-47
2022/01/24 09:59:25;;;;;;;42.50;23.63;;;12.90;60.60;;;;;;4995814;28;20141;-49
2022/01/24 10:01:51;;;;;;;235.02;90.40;;;14.80;60.30;;;;;;5023309;28;20120;-49
2022/01/24 10:04:20;;;;;;;218.38;79.53;;;14.00;59.40;;;;;;4963724;28;20093;-49
2022/01/24 10:07:04;;;;;;;28.70;19.63;;;15.10;58.40;;;;;;5013077;28;20029;-48
2022/01/24 10:09:37;;;;;;;37.70;22.23;;;14.10;59.10;;;;;;5024814;28;20473;-48
2022/01/24 10:17:44;;;;;;;32.90;25.77;;;11.80;61.80;;;;;;5055187;28;20392;-46
2022/01/24 10:20:19;;;;;;;31.95;28.17;;;12.40;61.10;;;;;;5054846;28;20029;-45
2022/01/24 10:23:21;;;;;;;59.53;45.15;;;11.40;62.10;;;;;;5054770;28;20021;-49
2022/01/24 10:25:59;;;;;;;42.05;39.28;;;11.50;61.70;;;;;;5051042;28;20039;-47
2022/01/24 10:28:32;;;;;;;64.45;59.92;;;10.20;62.50;;;;;;5055828;28;20154;-48
2022/01/24 10:31:06;;;;;;;55.95;37.03;;;10.60;62.60;;;;;;5055607;28;20041;-45
2022/01/24 10:34:07;;;;;;;66.45;62.17;;;11.10;63.20;;;;;;5054784;28;20491;-45
2022/01/24 10:36:41;;;;;;;182.70;79.25;;;9.40;63.30;;;;;;5055478;28;20039;-45
2022/01/24 10:39:18;;;;;;;79.65;73.38;;;10.80;62.70;;;;;;5055814;28;20495;-51
2022/01/24 10:41:58;;;;;;;157.40;63.42;;;12.60;62.20;;;;;;5055818;28;20060;-49
2022/01/24 10:44:28;;;;;;;44.92;39.72;;;11.20;61.50;;;;;;5055389;28;20044;-46
2022/01/24 10:47:12;;;;;;;493.88;210.35;;;10.40;62.60;;;;;;5037458;28;20035;-49
2022/01/24 10:49:40;;;;;;;87.07;66.03;;;10.00;63.60;;;;;;5004180;28;20049;-50
2022/01/24 10:52:19;;;;;;;38.97;36.08;;;9.30;63.70;;;;;;5055335;28;20033;-47
2022/01/24 10:54:50;;;;;;;186.43;75.72;;;8.40;64.80;;;;;;5055428;28;20461;-47
2022/01/24 10:57:22;;;;;;;20.98;18.73;;;8.10;66.40;;;;;;5055374;28;20033;-46
2022/01/24 10:59:49;;;;;;;33.38;21.08;;;7.80;66.70;;;;;;5036535;28;20029;-49
2022/01/24 11:02:16;;;;;;;165.05;83.70;;;8.00;67.20;;;;;;5064108;28;20111;-49
2022/01/24 11:04:42;;;;;;;58.38;33.20;;;9.20;64.30;;;;;;5011920;28;20044;-51
2022/01/24 11:07:08;;;;;;;29.05;23.67;;;9.70;64.30;;;;;;5068462;28;20024;-49
2022/01/24 11:09:42;;;;;;;144.13;60.05;;;9.40;63.70;;;;;;5024674;28;20064;-53
2022/01/24 11:12:12;;;;;;;21.60;19.33;;;9.60;63.70;;;;;;5074653;28;20476;-48
2022/01/24 11:14:43;;;;;;;35.35;24.40;;;8.10;64.30;;;;;;5040760;28;20082;-47
2022/01/24 11:17:13;;;;;;;18.42;15.98;;;8.50;63.70;;;;;;5039757;28;20435;-52
2022/01/24 11:19:50;;;;;;;45.85;29.85;;;7.80;64.90;;;;;;5074741;28;20029;-48
2022/01/24 11:22:20;;;;;;;23.30;18.98;;;7.50;65.60;;;;;;5074423;28;20465;-45
2022/01/24 11:25:00;;;;;;;44.33;21.42;;;7.60;66.80;;;;;;5074427;28;20028;-50
2022/01/24 11:27:27;;;;;;;31.13;25.52;;;8.80;65.90;;;;;;5074657;28;20029;-49
2022/01/24 11:29:56;;;;;;;21.55;17.75;;;9.20;64.40;;;;;;5039401;28;20041;-52
2022/01/24 11:32:29;;;;;;;26.38;18.10;;;9.60;65.50;;;;;;5039397;28;20052;-52
2022/01/24 11:34:58;;;;;;;19.90;17.50;;;10.10;63.80;;;;;;5074443;28;20020;-51
2022/01/24 11:37:39;;;;;;;19.98;17.50;;;;;;;;;;5073331;28;20059;-54
2022/01/24 11:40:09;;;;;;;19.27;17.25;;;10.00;72.10;;;;;;5021517;28;20089;-52
2022/01/24 11:42:36;;;;;;;19.55;17.63;;;10.30;71.10;;;;;;5037542;28;20086;-51
2022/01/24 11:45:14;;;;;;;31.88;20.00;;;9.50;62.80;;;;;;5072645;28;20086;-50
2022/01/24 11:47:41;;;;;;;26.27;18.88;;;9.00;63.80;;;;;;5039158;28;20040;-52
2022/01/24 11:50:26;;;;;;;27.20;21.63;;;8.80;63.30;;;;;;5037676;28;20041;-51
2022/01/24 11:52:54;;;;;;;40.47;23.95;;;10.00;63.30;;;;;;5037684;28;20033;-51
2022/01/24 11:55:31;;;;;;;22.83;20.55;;;9.90;63.80;;;;;;5073005;28;20508;-52
2022/01/24 11:58:00;;;;;;;30.30;20.08;;;10.40;61.70;;;;;;5073119;28;20052;-51
2022/01/24 12:00:27;;;;;;;20.50;17.35;;;10.60;62.00;;;;;;5072864;28;20039;-49
2022/01/24 12:02:59;;;;;;;24.02;17.75;;;9.50;62.30;;;;;;5073606;28;20029;-49
2022/01/24 12:05:39;;;;;;;20.63;17.02;;;9.30;63.20;;;;;;5073995;28;20024;-48
2022/01/24 12:08:06;;;;;;;30.02;20.40;;;9.60;62.70;;;;;;5073637;28;20510;-52
2022/01/24 12:10:37;;;;;;;17.38;14.23;;;9.90;63.40;;;;;;5073588;28;20430;-50
2022/01/24 12:13:09;;;;;;;16.67;13.98;;;9.80;63.80;;;;;;5074051;28;20411;-48
2022/01/24 12:15:38;;;;;;;24.20;14.00;;;9.20;64.10;;;;;;5073699;28;20029;-51
2022/01/24 12:18:08;;;;;;;17.42;12.40;;;8.70;66.00;;;;;;5073722;28;20059;-52
2022/01/24 12:20:36;;;;;;;22.05;15.02;;;8.30;65.00;;;;;;5073649;28;20036;-47
2022/01/24 12:23:34;;;;;;;16.27;10.40;;;8.20;65.90;;;;;;5067531;28;20068;-51
2022/01/24 12:26:02;;;;;;;25.60;16.70;;;7.50;64.90;;;;;;5021348;28;20062;-53
2022/01/24 12:28:31;;;;;;;10.70;7.07;;;6.70;67.00;;;;;;5020312;28;20056;-50
2022/01/24 12:31:25;;;;;;;18.88;12.95;;;6.30;67.20;;;;;;5022273;28;20088;-49
2022/01/24 12:33:59;;;;;;;19.88;13.55;;;6.20;67.80;;;;;;5000035;28;20082;-50
2022/01/24 12:36:50;;;;;;;27.02;14.13;;;6.50;67.40;;;;;;5001082;28;20044;-51
2022/01/24 12:39:45;;;;;;;19.27;12.07;;;6.80;68.30;;;;;;4999851;28;20108;-50
2022/01/24 12:42:41;;;;;;;18.27;10.93;;;6.40;67.20;;;;;;5002333;28;20107;-51
2022/01/24 12:48:13;;;;;;;22.08;12.40;;;6.20;67.80;;;;;;5002182;28;20056;-54
2022/01/24 12:50:46;;;;;;;38.45;17.10;;;6.10;68.60;;;;;;4980710;28;20430;-49
2022/01/24 12:53:14;;;;;;;19.42;13.57;;;6.30;70.80;;;;;;4998505;28;20021;-51
2022/01/24 12:55:42;;;;;;;24.13;16.50;;;7.30;66.50;;;;;;5000754;28;20129;-45
2022/01/24 12:58:08;;;;;;;31.90;19.60;;;7.20;66.40;;;;;;4999327;28;20425;-49
2022/01/24 13:00:35;;;;;;;24.98;16.08;;;7.30;65.60;;;;;;5007058;28;20035;-48
2022/01/24 13:03:00;;;;;;;20.70;13.07;;;6.40;66.30;;;;;;4990964;28;20041;-48
2022/01/24 13:05:28;;;;;;;43.55;21.98;;;6.30;66.20;;;;;;5052001;28;20040;-51
2022/01/24 13:07:58;;;;;;;23.45;14.38;;;6.60;68.20;;;;;;5038272;28;20499;-55
2022/01/24 13:10:30;;;;;;;19.63;13.50;;;7.70;66.40;;;;;;5073292;28;20029;-48
2022/01/24 13:13:11;;;;;;;22.38;14.98;;;8.20;65.40;;;;;;5073699;28;20381;-49
2022/01/24 13:21:24;;;;;;;18.95;13.50;;;7.80;64.70;;;;;;5073447;28;20376;-46
2022/01/24 13:23:55;;;;;;;22.40;15.60;;;8.30;65.00;;;;;;5072962;28;20028;-51
2022/01/24 13:26:21;;;;;;;41.35;20.85;;;8.50;65.30;;;;;;5073257;28;20039;-46
2022/01/24 13:28:47;;;;;;;25.30;16.30;;;8.10;64.90;;;;;;5072984;28;20029;-49
2022/01/24 13:31:14;;;;;;;22.67;17.15;;;7.50;65.40;;;;;;5004424;28;20479;-48
2022/01/24 13:33:46;;;;;;;17.95;12.02;;;7.80;65.90;;;;;;5073163;28;20025;-47
2022/01/24 13:36:16;;;;;;;25.08;17.02;;;8.40;65.30;;;;;;5072837;28;20441;-47
2022/01/24 13:38:47;;;;;;;32.30;19.45;;;8.90;65.80;;;;;;5073166;28;20032;-49
2022/01/24 13:41:22;;;;;;;31.50;19.35;;;9.10;64.80;;;;;;5037601;28;20115;-48
2022/01/24 13:44:13;;;;;;;41.05;23.63;;;8.60;65.00;;;;;;5020836;28;20473;-47
2022/01/24 13:46:41;;;;;;;35.20;17.90;;;7.90;65.10;;;;;;5030464;28;20065;-48
2022/01/24 13:49:12;;;;;;;31.17;19.83;;;7.20;67.00;;;;;;4997361;28;20049;-50
2022/01/24 13:51:50;;;;;;;25.33;16.65;;;6.70;68.20;;;;;;5030552;28;20049;-51
2022/01/24 13:54:28;;;;;;;26.00;15.68;;;6.60;67.60;;;;;;5030763;28;20065;-47
2022/01/24 13:57:00;;;;;;;39.80;21.08;;;6.80;67.20;;;;;;5030684;28;20041;-50
2022/01/24 13:59:26;;;;;;;40.13;18.02;;;6.90;67.90;;;;;;5030721;28;20117;-48
2022/01/24 14:02:10;;;;;;;33.45;22.13;;;6.60;68.40;;;;;;5030583;28;20112;-47
2022/01/24 14:04:39;;;;;;;89.75;40.67;;;6.40;68.80;;;;;;4997011;28;20084;-49
2022/01/24 14:07:26;;;;;;;36.92;20.58;;;7.20;67.10;;;;;;5030398;28;20040;-46
2022/01/24 14:09:54;;;;;;;40.28;25.73;;;7.10;66.30;;;;;;5033383;28;20465;-47
2022/01/24 14:12:23;;;;;;;44.00;21.95;;;7.00;66.20;;;;;;5034003;28;20045;-49
2022/01/24 14:15:04;;;;;;;89.15;42.30;;;7.00;67.90;;;;;;5034003;28;20037;-45
2022/01/24 14:20:11;;;;;;;51.67;25.80;;;7.00;67.50;;;;;;5076297;28;20368;-48
2022/01/24 14:22:40;;;;;;;45.97;25.15;;;7.30;67.90;;;;;;5076233;28;20495;-48
2022/01/24 14:25:10;;;;;;;38.78;24.05;;;7.10;67.10;;;;;;5076053;28;20154;-51
2022/01/24 14:27:42;;;;;;;41.22;24.52;;;6.80;67.00;;;;;;5076048;28;20035;-47
2022/01/24 14:30:20;;;;;;;32.40;22.02;;;6.10;68.40;;;;;;5040474;28;20052;-49
2022/01/24 14:33:22;;;;;;;58.92;32.17;;;5.80;69.30;;;;;;5043343;28;20036;-49
2022/01/24 14:36:11;;;;;;;31.63;21.98;;;6.20;68.70;;;;;;5016572;28;20448;-47
2022/01/24 14:38:47;;;;;;;31.30;20.77;;;5.60;69.30;;;;;;5033604;28;20041;-49
2022/01/24 14:41:15;;;;;;;69.28;34.55;;;5.20;69.70;;;;;;4996980;28;20128;-49
2022/01/24 14:46:32;;;;;;;84.00;42.83;;;5.60;69.70;;;;;;5012904;28;20100;-49
2022/01/24 14:49:01;;;;;;;116.80;51.00;;;6.00;69.50;;;;;;5013712;28;20060;-51
2022/01/24 14:51:30;;;;;;;103.95;47.65;;;6.30;69.50;;;;;;5012808;28;20214;-51